sensor_id;sensor_type;location;lat;lon;timestamp;P1;durP1;ratioP1;P2;durP2;ratioP2
21103;SDS011;10710;53.398;-1.514;2023-05-07T06:56:27;4.40;;;2.10;;
21103;SDS011;10710;53.398;-1.514;2023-05-07T06:59:11;3.40;;;2.47;;
21103;SDS011;10710;53.398;-1.514;2023-05-07T07:01:55;5.28;;;2.38;;
21103;SDS011;10710;53.398;-1.514;2023-05-07T07:04:39;4.18;;;2.70;;
21103;SDS011;10710;53.398;-1.514;2023-05-07T07:07:24;3.88;;;2.42;;
21103;SDS011;10710;53.398;-1.514;2023-05-07T07:10:08;4.55;;;2.70;;
21103;SDS011;10710;53.398;-1.514;2023-05-07T07:12:53;5.40;;;3.00;;
21103;SDS011;10710;53.398;-1.514;2023-05-07T07:15:37;4.53;;;2.63;;
21103;SDS011;10710;53.398;-1.514;2023-05-07T07:18:22;4.65;;;2.95;;
21103;SDS011;10710;53.398;-1.514;2023-05-07T07:21:07;5.18;;;3.05;;
21103;SDS011;10710;53.398;-1.514;2023-05-07T07:23:51;5.20;;;2.88;;
21103;SDS011;10710;53.398;-1.514;2023-05-07T07:26:36;5.85;;;3.10;;
21103;SDS011;10710;53.398;-1.514;2023-05-07T07:29:20;5.93;;;3.57;;
21103;SDS011;10710;53.398;-1.514;2023-05-07T07:32:05;5.00;;;3.17;;
21103;SDS011;10710;53.398;-1.514;2023-05-07T07:34:50;6.60;;;3.10;;
21103;SDS011;10710;53.398;-1.514;2023-05-07T07:37:34;4.07;;;2.85;;
21103;SDS011;10710;53.398;-1.514;2023-05-07T07:40:18;5.18;;;3.00;;
21103;SDS011;10710;53.398;-1.514;2023-05-07T07:43:02;5.32;;;2.90;;
21103;SDS011;10710;53.398;-1.514;2023-05-07T07:45:46;4.45;;;2.90;;
21103;SDS011;10710;53.398;-1.514;2023-05-07T07:48:30;5.25;;;2.80;;
21103;SDS011;10710;53.398;-1.514;2023-05-07T07:51:15;8.85;;;2.88;;
21103;SDS011;10710;53.398;-1.514;2023-05-07T07:53:59;6.47;;;2.70;;
21103;SDS011;10710;53.398;-1.514;2023-05-07T07:56:45;5.30;;;2.80;;
21103;SDS011;10710;53.398;-1.514;2023-05-07T07:59:30;4.85;;;2.63;;
21103;SDS011;10710;53.398;-1.514;2023-05-07T08:02:14;4.68;;;2.53;;
21103;SDS011;10710;53.398;-1.514;2023-05-07T08:04:59;3.55;;;2.30;;
21103;SDS011;10710;53.398;-1.514;2023-05-07T08:07:43;4.22;;;2.53;;
21103;SDS011;10710;53.398;-1.514;2023-05-07T08:10:28;4.90;;;2.80;;
21103;SDS011;10710;53.398;-1.514;2023-05-07T08:13:13;4.55;;;2.53;;
21103;SDS011;10710;53.398;-1.514;2023-05-07T08:15:57;5.07;;;2.45;;
21103;SDS011;10710;53.398;-1.514;2023-05-07T08:18:42;4.45;;;2.33;;
21103;SDS011;10710;53.398;-1.514;2023-05-07T08:21:26;4.63;;;2.53;;
21103;SDS011;10710;53.398;-1.514;2023-05-07T08:24:10;3.42;;;2.00;;
21103;SDS011;10710;53.398;-1.514;2023-05-07T08:26:55;4.50;;;2.40;;
21103;SDS011;10710;53.398;-1.514;2023-05-07T08:29:40;3.03;;;2.00;;
21103;SDS011;10710;53.398;-1.514;2023-05-07T08:32:24;4.45;;;2.35;;
21103;SDS011;10710;53.398;-1.514;2023-05-07T08:35:08;5.18;;;2.05;;
21103;SDS011;10710;53.398;-1.514;2023-05-07T08:37:53;3.97;;;2.08;;
21103;SDS011;10710;53.398;-1.514;2023-05-07T08:40:38;7.13;;;2.53;;
21103;SDS011;10710;53.398;-1.514;2023-05-07T08:43:26;4.90;;;2.40;;
21103;SDS011;10710;53.398;-1.514;2023-05-07T08:46:11;4.15;;;2.53;;
21103;SDS011;10710;53.398;-1.514;2023-05-07T08:49:00;2.70;;;1.80;;
21103;SDS011;10710;53.398;-1.514;2023-05-07T08:51:44;3.03;;;1.63;;
21103;SDS011;10710;53.398;-1.514;2023-05-07T08:54:28;2.42;;;1.25;;
21103;SDS011;10710;53.398;-1.514;2023-05-07T08:57:14;3.00;;;1.83;;
21103;SDS011;10710;53.398;-1.514;2023-05-07T08:59:59;2.40;;;1.53;;
21103;SDS011;10710;53.398;-1.514;2023-05-07T09:02:43;5.07;;;2.30;;
21103;SDS011;10710;53.398;-1.514;2023-05-07T09:05:27;2.70;;;1.47;;
21103;SDS011;10710;53.398;-1.514;2023-05-07T09:08:14;2.85;;;1.90;;
21103;SDS011;10710;53.398;-1.514;2023-05-07T09:10:59;1.92;;;1.60;;
21103;SDS011;10710;53.398;-1.514;2023-05-07T09:13:44;3.10;;;1.80;;
21103;SDS011;10710;53.398;-1.514;2023-05-07T09:16:29;3.40;;;1.60;;
21103;SDS011;10710;53.398;-1.514;2023-05-07T09:19:13;2.85;;;1.80;;
21103;SDS011;10710;53.398;-1.514;2023-05-07T09:22:01;2.60;;;1.60;;
21103;SDS011;10710;53.398;-1.514;2023-05-07T09:24:50;2.33;;;1.48;;
21103;SDS011;10710;53.398;-1.514;2023-05-07T09:27:35;2.40;;;1.63;;
21103;SDS011;10710;53.398;-1.514;2023-05-07T09:30:20;3.47;;;1.98;;
21103;SDS011;10710;53.398;-1.514;2023-05-07T09:33:04;3.83;;;1.97;;
21103;SDS011;10710;53.398;-1.514;2023-05-07T09:35:53;3.73;;;1.90;;
21103;SDS011;10710;53.398;-1.514;2023-05-07T09:38:38;3.78;;;2.13;;
21103;SDS011;10710;53.398;-1.514;2023-05-07T09:41:22;4.22;;;2.45;;
21103;SDS011;10710;53.398;-1.514;2023-05-07T09:44:07;4.97;;;2.67;;
21103;SDS011;10710;53.398;-1.514;2023-05-07T09:46:53;8.13;;;3.67;;
21103;SDS011;10710;53.398;-1.514;2023-05-07T09:49:39;5.47;;;3.33;;
21103;SDS011;10710;53.398;-1.514;2023-05-07T09:52:25;5.15;;;2.97;;
21103;SDS011;10710;53.398;-1.514;2023-05-07T09:55:17;3.67;;;2.60;;
21103;SDS011;10710;53.398;-1.514;2023-05-07T09:58:02;5.80;;;2.40;;
21103;SDS011;10710;53.398;-1.514;2023-05-07T10:00:49;3.17;;;2.20;;
21103;SDS011;10710;53.398;-1.514;2023-05-07T10:03:35;5.18;;;2.40;;
21103;SDS011;10710;53.398;-1.514;2023-05-07T10:06:20;3.90;;;2.40;;
21103;SDS011;10710;53.398;-1.514;2023-05-07T10:09:08;5.03;;;2.85;;
21103;SDS011;10710;53.398;-1.514;2023-05-07T10:11:54;6.95;;;2.83;;
21103;SDS011;10710;53.398;-1.514;2023-05-07T10:14:40;5.65;;;2.53;;
21103;SDS011;10710;53.398;-1.514;2023-05-07T10:17:24;4.00;;;2.20;;
21103;SDS011;10710;53.398;-1.514;2023-05-07T10:20:09;6.63;;;2.47;;
21103;SDS011;10710;53.398;-1.514;2023-05-07T10:22:54;4.20;;;2.20;;
21103;SDS011;10710;53.398;-1.514;2023-05-07T10:25:41;6.15;;;2.20;;
21103;SDS011;10710;53.398;-1.514;2023-05-07T10:28:26;4.40;;;2.00;;
21103;SDS011;10710;53.398;-1.514;2023-05-07T10:31:59;3.15;;;1.92;;
21103;SDS011;10710;53.398;-1.514;2023-05-07T10:34:21;4.20;;;2.10;;
21103;SDS011;10710;53.398;-1.514;2023-05-07T10:37:10;4.35;;;1.85;;
21103;SDS011;10710;53.398;-1.514;2023-05-07T10:39:55;2.80;;;1.97;;
21103;SDS011;10710;53.398;-1.514;2023-05-07T10:42:56;4.00;;;1.83;;
21103;SDS011;10710;53.398;-1.514;2023-05-07T10:46:27;5.75;;;2.00;;
21103;SDS011;10710;53.398;-1.514;2023-05-07T10:51:44;2.70;;;2.00;;
21103;SDS011;10710;53.398;-1.514;2023-05-07T10:54:30;3.17;;;2.20;;
21103;SDS011;10710;53.398;-1.514;2023-05-07T10:57:32;4.38;;;2.50;;
21103;SDS011;10710;53.398;-1.514;2023-05-07T11:03:07;3.37;;;2.10;;
21103;SDS011;10710;53.398;-1.514;2023-05-07T11:06:11;3.30;;;2.00;;
21103;SDS011;10710;53.398;-1.514;2023-05-07T11:08:57;3.77;;;2.07;;
21103;SDS011;10710;53.398;-1.514;2023-05-07T11:11:45;3.65;;;2.10;;
21103;SDS011;10710;53.398;-1.514;2023-05-07T11:14:42;3.08;;;1.77;;
21103;SDS011;10710;53.398;-1.514;2023-05-07T11:17:28;2.45;;;1.77;;
21103;SDS011;10710;53.398;-1.514;2023-05-07T11:20:15;5.00;;;3.10;;
21103;SDS011;10710;53.398;-1.514;2023-05-07T11:23:00;3.20;;;1.92;;
21103;SDS011;10710;53.398;-1.514;2023-05-07T11:25:44;2.30;;;1.42;;
21103;SDS011;10710;53.398;-1.514;2023-05-07T11:28:29;4.97;;;1.88;;
21103;SDS011;10710;53.398;-1.514;2023-05-07T11:31:14;2.63;;;1.80;;
21103;SDS011;10710;53.398;-1.514;2023-05-07T11:34:06;1.70;;;1.20;;
21103;SDS011;10710;53.398;-1.514;2023-05-07T11:36:51;2.15;;;1.55;;
21103;SDS011;10710;53.398;-1.514;2023-05-07T11:39:36;3.87;;;1.53;;
21103;SDS011;10710;53.398;-1.514;2023-05-07T11:42:39;2.38;;;1.85;;
21103;SDS011;10710;53.398;-1.514;2023-05-07T11:45:27;2.25;;;1.52;;
21103;SDS011;10710;53.398;-1.514;2023-05-07T11:48:12;3.83;;;1.00;;
21103;SDS011;10710;53.398;-1.514;2023-05-07T11:53:45;3.85;;;1.40;;
21103;SDS011;10710;53.398;-1.514;2023-05-07T11:56:29;1.95;;;1.20;;
21103;SDS011;10710;53.398;-1.514;2023-05-07T11:59:19;1.80;;;1.10;;
21103;SDS011;10710;53.398;-1.514;2023-05-07T12:02:05;1.70;;;1.25;;
21103;SDS011;10710;53.398;-1.514;2023-05-07T12:04:50;1.40;;;1.27;;
21103;SDS011;10710;53.398;-1.514;2023-05-07T12:07:38;2.53;;;1.37;;
21103;SDS011;10710;53.398;-1.514;2023-05-07T12:10:23;3.83;;;1.20;;
21103;SDS011;10710;53.398;-1.514;2023-05-07T12:13:15;3.38;;;1.70;;
21103;SDS011;10710;53.398;-1.514;2023-05-07T12:16:04;4.72;;;1.30;;
21103;SDS011;10710;53.398;-1.514;2023-05-07T12:18:50;1.98;;;1.20;;
21103;SDS011;10710;53.398;-1.514;2023-05-07T12:21:36;2.88;;;1.30;;
21103;SDS011;10710;53.398;-1.514;2023-05-07T12:24:21;3.47;;;1.57;;
21103;SDS011;10710;53.398;-1.514;2023-05-07T12:27:05;2.20;;;1.88;;
21103;SDS011;10710;53.398;-1.514;2023-05-07T12:29:49;2.30;;;1.50;;
21103;SDS011;10710;53.398;-1.514;2023-05-07T12:32:34;2.22;;;1.48;;
21103;SDS011;10710;53.398;-1.514;2023-05-07T12:35:27;4.60;;;1.50;;
21103;SDS011;10710;53.398;-1.514;2023-05-07T12:38:13;2.90;;;1.30;;
21103;SDS011;10710;53.398;-1.514;2023-05-07T12:41:01;5.53;;;1.60;;
21103;SDS011;10710;53.398;-1.514;2023-05-07T12:43:45;3.88;;;1.73;;
21103;SDS011;10710;53.398;-1.514;2023-05-07T12:46:31;6.95;;;1.50;;
21103;SDS011;10710;53.398;-1.514;2023-05-07T12:49:16;2.85;;;1.40;;
21103;SDS011;10710;53.398;-1.514;2023-05-07T12:52:02;2.73;;;1.57;;
21103;SDS011;10710;53.398;-1.514;2023-05-07T12:54:46;2.92;;;1.35;;
21103;SDS011;10710;53.398;-1.514;2023-05-07T12:57:37;3.28;;;1.38;;
21103;SDS011;10710;53.398;-1.514;2023-05-07T13:00:33;3.58;;;1.25;;
21103;SDS011;10710;53.398;-1.514;2023-05-07T13:03:32;4.75;;;1.30;;
21103;SDS011;10710;53.398;-1.514;2023-05-07T13:06:18;2.58;;;1.20;;
21103;SDS011;10710;53.398;-1.514;2023-05-07T13:09:02;2.72;;;1.50;;
21103;SDS011;10710;53.398;-1.514;2023-05-07T13:11:48;2.93;;;1.27;;
21103;SDS011;10710;53.398;-1.514;2023-05-07T13:14:32;3.55;;;1.08;;
21103;SDS011;10710;53.398;-1.514;2023-05-07T13:17:17;2.80;;;1.48;;
21103;SDS011;10710;53.398;-1.514;2023-05-07T13:20:02;5.93;;;1.40;;
21103;SDS011;10710;53.398;-1.514;2023-05-07T13:22:47;1.40;;;1.10;;
21103;SDS011;10710;53.398;-1.514;2023-05-07T13:25:31;1.27;;;1.08;;
21103;SDS011;10710;53.398;-1.514;2023-05-07T13:28:15;4.30;;;1.10;;
21103;SDS011;10710;53.398;-1.514;2023-05-07T13:31:00;5.85;;;1.33;;
21103;SDS011;10710;53.398;-1.514;2023-05-07T13:33:44;4.32;;;1.02;;
21103;SDS011;10710;53.398;-1.514;2023-05-07T13:36:28;3.75;;;1.30;;
21103;SDS011;10710;53.398;-1.514;2023-05-07T13:39:12;2.63;;;1.00;;
21103;SDS011;10710;53.398;-1.514;2023-05-07T13:41:57;2.17;;;1.30;;
21103;SDS011;10710;53.398;-1.514;2023-05-07T13:44:41;1.73;;;1.00;;
21103;SDS011;10710;53.398;-1.514;2023-05-07T13:47:27;2.97;;;1.10;;
21103;SDS011;10710;53.398;-1.514;2023-05-07T13:50:12;5.25;;;1.30;;
21103;SDS011;10710;53.398;-1.514;2023-05-07T13:52:59;4.35;;;2.20;;
21103;SDS011;10710;53.398;-1.514;2023-05-07T13:55:44;2.90;;;1.07;;
21103;SDS011;10710;53.398;-1.514;2023-05-07T13:58:28;3.45;;;1.15;;
21103;SDS011;10710;53.398;-1.514;2023-05-07T14:01:13;2.10;;;1.17;;
21103;SDS011;10710;53.398;-1.514;2023-05-07T14:03:58;2.78;;;1.17;;
21103;SDS011;10710;53.398;-1.514;2023-05-07T14:06:42;4.60;;;1.55;;
21103;SDS011;10710;53.398;-1.514;2023-05-07T14:09:27;3.45;;;1.60;;
21103;SDS011;10710;53.398;-1.514;2023-05-07T14:12:11;2.27;;;1.17;;
21103;SDS011;10710;53.398;-1.514;2023-05-07T14:14:56;3.42;;;1.35;;
21103;SDS011;10710;53.398;-1.514;2023-05-07T14:17:41;2.25;;;1.30;;
21103;SDS011;10710;53.398;-1.514;2023-05-07T14:20:26;2.90;;;1.33;;
21103;SDS011;10710;53.398;-1.514;2023-05-07T14:23:10;1.88;;;1.02;;
21103;SDS011;10710;53.398;-1.514;2023-05-07T14:25:55;2.70;;;1.10;;
21103;SDS011;10710;53.398;-1.514;2023-05-07T14:28:41;3.97;;;1.38;;
21103;SDS011;10710;53.398;-1.514;2023-05-07T14:31:30;1.50;;;1.23;;
21103;SDS011;10710;53.398;-1.514;2023-05-07T14:34:14;1.55;;;1.02;;
21103;SDS011;10710;53.398;-1.514;2023-05-07T14:36:59;3.78;;;1.20;;
21103;SDS011;10710;53.398;-1.514;2023-05-07T14:39:44;3.17;;;1.23;;
21103;SDS011;10710;53.398;-1.514;2023-05-07T14:42:28;4.40;;;1.17;;
21103;SDS011;10710;53.398;-1.514;2023-05-07T14:45:14;3.03;;;1.23;;
21103;SDS011;10710;53.398;-1.514;2023-05-07T14:47:58;2.67;;;1.40;;
21103;SDS011;10710;53.398;-1.514;2023-05-07T14:50:43;1.08;;;0.93;;
21103;SDS011;10710;53.398;-1.514;2023-05-07T14:53:30;5.05;;;1.40;;
21103;SDS011;10710;53.398;-1.514;2023-05-07T14:56:15;3.95;;;2.25;;
21103;SDS011;10710;53.398;-1.514;2023-05-07T14:59:12;6.90;;;1.42;;
21103;SDS011;10710;53.398;-1.514;2023-05-07T15:01:59;2.92;;;1.10;;
21103;SDS011;10710;53.398;-1.514;2023-05-07T15:05:15;3.58;;;1.33;;
21103;SDS011;10710;53.398;-1.514;2023-05-07T15:08:16;2.42;;;1.30;;
21103;SDS011;10710;53.398;-1.514;2023-05-07T15:11:33;2.75;;;1.73;;
21103;SDS011;10710;53.398;-1.514;2023-05-07T15:14:19;2.00;;;1.70;;
21103;SDS011;10710;53.398;-1.514;2023-05-07T15:17:06;3.30;;;2.00;;
21103;SDS011;10710;53.398;-1.514;2023-05-07T15:19:51;3.10;;;1.92;;
21103;SDS011;10710;53.398;-1.514;2023-05-07T15:22:35;3.10;;;1.75;;
21103;SDS011;10710;53.398;-1.514;2023-05-07T15:25:22;3.75;;;1.70;;
21103;SDS011;10710;53.398;-1.514;2023-05-07T15:28:09;2.60;;;1.88;;
21103;SDS011;10710;53.398;-1.514;2023-05-07T15:30:57;2.38;;;1.70;;
21103;SDS011;10710;53.398;-1.514;2023-05-07T15:33:50;1.73;;;1.60;;
21103;SDS011;10710;53.398;-1.514;2023-05-07T15:36:41;4.60;;;1.98;;
21103;SDS011;10710;53.398;-1.514;2023-05-07T15:42:49;3.60;;;1.73;;
21103;SDS011;10710;53.398;-1.514;2023-05-07T15:45:38;3.13;;;1.77;;
21103;SDS011;10710;53.398;-1.514;2023-05-07T15:48:26;2.75;;;2.00;;
21103;SDS011;10710;53.398;-1.514;2023-05-07T16:03:24;2.35;;;1.42;;
21103;SDS011;10710;53.398;-1.514;2023-05-07T16:06:39;2.72;;;2.10;;
21103;SDS011;10710;53.398;-1.514;2023-05-07T16:09:28;2.70;;;1.80;;
21103;SDS011;10710;53.398;-1.514;2023-05-07T16:12:19;3.92;;;1.85;;
21103;SDS011;10710;53.398;-1.514;2023-05-07T16:15:11;3.30;;;1.60;;
21103;SDS011;10710;53.398;-1.514;2023-05-07T16:18:14;1.80;;;1.40;;
21103;SDS011;10710;53.398;-1.514;2023-05-07T16:20:59;2.30;;;1.40;;
21103;SDS011;10710;53.398;-1.514;2023-05-07T16:23:58;2.80;;;1.50;;
21103;SDS011;10710;53.398;-1.514;2023-05-07T16:26:55;1.70;;;1.30;;
21103;SDS011;10710;53.398;-1.514;2023-05-07T16:29:49;3.17;;;1.60;;
21103;SDS011;10710;53.398;-1.514;2023-05-07T16:32:37;3.72;;;1.83;;
21103;SDS011;10710;53.398;-1.514;2023-05-07T16:35:22;4.50;;;1.70;;
21103;SDS011;10710;53.398;-1.514;2023-05-07T16:38:07;2.77;;;1.10;;
21103;SDS011;10710;53.398;-1.514;2023-05-07T16:40:56;3.38;;;1.00;;
21103;SDS011;10710;53.398;-1.514;2023-05-07T16:43:42;2.63;;;1.40;;
21103;SDS011;10710;53.398;-1.514;2023-05-07T16:49:33;2.45;;;1.23;;
21103;SDS011;10710;53.398;-1.514;2023-05-07T16:52:20;1.50;;;0.90;;
21103;SDS011;10710;53.398;-1.514;2023-05-07T16:55:04;1.85;;;1.20;;
21103;SDS011;10710;53.398;-1.514;2023-05-07T16:57:50;3.67;;;0.90;;
21103;SDS011;10710;53.398;-1.514;2023-05-07T17:00:34;0.95;;;0.82;;
21103;SDS011;10710;53.398;-1.514;2023-05-07T17:03:19;2.23;;;1.13;;
21103;SDS011;10710;53.398;-1.514;2023-05-07T17:06:03;1.80;;;1.50;;
21103;SDS011;10710;53.398;-1.514;2023-05-07T17:08:48;2.58;;;1.00;;
21103;SDS011;10710;53.398;-1.514;2023-05-07T17:11:34;1.42;;;0.93;;
21103;SDS011;10710;53.398;-1.514;2023-05-07T17:14:19;2.70;;;1.13;;
21103;SDS011;10710;53.398;-1.514;2023-05-07T17:17:03;1.20;;;0.95;;
21103;SDS011;10710;53.398;-1.514;2023-05-07T17:19:48;1.17;;;0.85;;
21103;SDS011;10710;53.398;-1.514;2023-05-07T17:22:32;1.37;;;0.80;;
21103;SDS011;10710;53.398;-1.514;2023-05-07T17:25:16;3.83;;;1.20;;
21103;SDS011;10710;53.398;-1.514;2023-05-07T17:28:01;2.83;;;1.10;;
21103;SDS011;10710;53.398;-1.514;2023-05-07T17:30:46;1.73;;;1.10;;
21103;SDS011;10710;53.398;-1.514;2023-05-07T17:33:31;1.10;;;0.93;;
21103;SDS011;10710;53.398;-1.514;2023-05-07T17:36:16;2.83;;;1.50;;
21103;SDS011;10710;53.398;-1.514;2023-05-07T17:39:00;1.17;;;0.95;;
21103;SDS011;10710;53.398;-1.514;2023-05-07T17:41:45;4.88;;;2.00;;
21103;SDS011;10710;53.398;-1.514;2023-05-07T17:44:29;1.77;;;0.98;;
21103;SDS011;10710;53.398;-1.514;2023-05-07T17:47:14;2.17;;;1.30;;
21103;SDS011;10710;53.398;-1.514;2023-05-07T17:49:58;3.60;;;1.00;;
21103;SDS011;10710;53.398;-1.514;2023-05-07T17:52:43;4.40;;;1.20;;
21103;SDS011;10710;53.398;-1.514;2023-05-07T17:55:28;5.40;;;1.60;;
21103;SDS011;10710;53.398;-1.514;2023-05-07T17:58:13;2.20;;;1.27;;
21103;SDS011;10710;53.398;-1.514;2023-05-07T18:00:57;1.60;;;1.30;;
21103;SDS011;10710;53.398;-1.514;2023-05-07T18:03:42;14.55;;;7.28;;
21103;SDS011;10710;53.398;-1.514;2023-05-07T18:06:26;2.90;;;1.30;;
21103;SDS011;10710;53.398;-1.514;2023-05-07T18:09:11;3.83;;;1.13;;
21103;SDS011;10710;53.398;-1.514;2023-05-07T18:11:56;4.43;;;1.10;;
21103;SDS011;10710;53.398;-1.514;2023-05-07T18:14:40;4.05;;;1.45;;
21103;SDS011;10710;53.398;-1.514;2023-05-07T18:17:24;2.67;;;1.60;;
21103;SDS011;10710;53.398;-1.514;2023-05-07T18:20:10;4.72;;;1.20;;
21103;SDS011;10710;53.398;-1.514;2023-05-07T18:22:55;2.25;;;1.10;;
21103;SDS011;10710;53.398;-1.514;2023-05-07T18:25:40;3.80;;;1.00;;
21103;SDS011;10710;53.398;-1.514;2023-05-07T18:28:24;4.15;;;1.50;;
21103;SDS011;10710;53.398;-1.514;2023-05-07T18:31:34;2.58;;;1.00;;
21103;SDS011;10710;53.398;-1.514;2023-05-07T18:34:18;2.40;;;1.20;;
21103;SDS011;10710;53.398;-1.514;2023-05-07T18:37:03;2.28;;;1.02;;
21103;SDS011;10710;53.398;-1.514;2023-05-07T18:39:48;1.27;;;1.00;;
21103;SDS011;10710;53.398;-1.514;2023-05-07T18:42:32;2.47;;;1.35;;
21103;SDS011;10710;53.398;-1.514;2023-05-07T18:45:23;2.20;;;1.30;;
21103;SDS011;10710;53.398;-1.514;2023-05-07T18:48:17;3.47;;;1.63;;
21103;SDS011;10710;53.398;-1.514;2023-05-07T18:51:05;1.30;;;1.13;;
21103;SDS011;10710;53.398;-1.514;2023-05-07T18:53:54;2.13;;;1.30;;
21103;SDS011;10710;53.398;-1.514;2023-05-07T18:56:42;1.45;;;0.82;;
21103;SDS011;10710;53.398;-1.514;2023-05-07T18:59:30;2.88;;;1.25;;
21103;SDS011;10710;53.398;-1.514;2023-05-07T19:02:17;1.92;;;1.20;;
21103;SDS011;10710;53.398;-1.514;2023-05-07T19:05:02;2.00;;;1.17;;
21103;SDS011;10710;53.398;-1.514;2023-05-07T19:07:47;2.23;;;1.67;;
21103;SDS011;10710;53.398;-1.514;2023-05-07T19:10:39;1.85;;;1.20;;
21103;SDS011;10710;53.398;-1.514;2023-05-07T19:13:33;2.00;;;1.30;;
21103;SDS011;10710;53.398;-1.514;2023-05-07T19:16:21;1.85;;;1.40;;
21103;SDS011;10710;53.398;-1.514;2023-05-07T19:19:08;2.63;;;1.45;;
21103;SDS011;10710;53.398;-1.514;2023-05-07T19:22:19;2.50;;;1.30;;
21103;SDS011;10710;53.398;-1.514;2023-05-07T19:25:07;1.20;;;1.03;;
21103;SDS011;10710;53.398;-1.514;2023-05-07T19:27:52;1.63;;;1.02;;
21103;SDS011;10710;53.398;-1.514;2023-05-07T19:30:43;1.02;;;0.90;;
21103;SDS011;10710;53.398;-1.514;2023-05-07T19:33:33;3.60;;;1.30;;
21103;SDS011;10710;53.398;-1.514;2023-05-07T19:36:18;3.67;;;1.50;;
21103;SDS011;10710;53.398;-1.514;2023-05-07T19:39:12;2.35;;;1.40;;
21103;SDS011;10710;53.398;-1.514;2023-05-07T19:45:52;3.42;;;1.40;;
21103;SDS011;10710;53.398;-1.514;2023-05-07T19:48:39;4.60;;;3.25;;
21103;SDS011;10710;53.398;-1.514;2023-05-07T19:51:36;7.95;;;4.15;;
21103;SDS011;10710;53.398;-1.514;2023-05-07T19:54:23;3.80;;;2.55;;
